sensor_id;sensor_type;location;lat;lon;timestamp;pressure;altitude;pressure_sealevel;temperature;humidity
62152;BME280;48139;47.474;19.034;2022-08-16T04:00:40;99516.56;;;22.68;57.46
62152;BME280;48139;47.474;19.034;2022-08-16T04:03:45;99521.34;;;23.44;54.39
62152;BME280;48139;47.474;19.034;2022-08-16T04:06:51;99529.94;;;23.70;53.89
62152;BME280;48139;47.474;19.034;2022-08-16T04:09:58;99532.50;;;23.87;53.40
62152;BME280;48139;47.474;19.034;2022-08-16T04:13:21;99526.75;;;23.98;52.66
62152;BME280;48139;47.474;19.034;2022-08-16T04:16:45;99526.44;;;24.16;52.20
62152;BME280;48139;47.474;19.034;2022-08-16T04:19:55;99542.34;;;24.17;52.15
62152;BME280;48139;47.474;19.034;2022-08-16T04:23:01;99531.28;;;24.20;51.48
62152;BME280;48139;47.474;19.034;2022-08-16T04:26:05;99540.59;;;24.24;51.24
62152;BME280;48139;47.474;19.034;2022-08-16T04:29:20;99540.16;;;24.21;51.59
62152;BME280;48139;47.474;19.034;2022-08-16T04:32:26;99533.63;;;24.15;51.92
62152;BME280;48139;47.474;19.034;2022-08-16T04:35:31;99530.84;;;24.31;51.29
62152;BME280;48139;47.474;19.034;2022-08-16T04:38:36;99526.88;;;24.27;51.35
62152;BME280;48139;47.474;19.034;2022-08-16T04:41:39;99532.97;;;24.21;51.77
62152;BME280;48139;47.474;19.034;2022-08-16T04:44:42;99525.25;;;24.18;51.85
62152;BME280;48139;47.474;19.034;2022-08-16T04:47:57;99529.97;;;24.16;51.70
62152;BME280;48139;47.474;19.034;2022-08-16T04:51:04;99533.25;;;24.26;51.39
62152;BME280;48139;47.474;19.034;2022-08-16T04:54:14;99532.62;;;24.39;51.02
62152;BME280;48139;47.474;19.034;2022-08-16T04:57:21;99529.72;;;24.48;50.72
62152;BME280;48139;47.474;19.034;2022-08-16T05:00:31;99531.66;;;24.55;50.60
62152;BME280;48139;47.474;19.034;2022-08-16T05:03:38;99528.16;;;24.54;50.46
62152;BME280;48139;47.474;19.034;2022-08-16T05:07:01;99534.03;;;24.49;50.50
62152;BME280;48139;47.474;19.034;2022-08-16T05:10:08;99546.34;;;24.59;50.41
62152;BME280;48139;47.474;19.034;2022-08-16T05:13:24;99550.31;;;24.48;50.36
62152;BME280;48139;47.474;19.034;2022-08-16T05:16:44;99551.22;;;24.55;50.29
62152;BME280;48139;47.474;19.034;2022-08-16T05:19:47;99541.84;;;24.74;50.59
62152;BME280;48139;47.474;19.034;2022-08-16T05:23:00;99569.34;;;24.90;50.16
62152;BME280;48139;47.474;19.034;2022-08-16T05:26:03;99566.87;;;24.81;52.20
62152;BME280;48139;47.474;19.034;2022-08-16T05:29:07;99563.69;;;24.48;53.99
62152;BME280;48139;47.474;19.034;2022-08-16T05:32:17;99572.97;;;24.37;56.21
62152;BME280;48139;47.474;19.034;2022-08-16T05:35:38;99575.34;;;24.32;58.20
62152;BME280;48139;47.474;19.034;2022-08-16T05:38:45;99572.19;;;23.75;60.16
62152;BME280;48139;47.474;19.034;2022-08-16T05:41:48;99560.88;;;23.65;61.72
62152;BME280;48139;47.474;19.034;2022-08-16T05:44:53;99559.13;;;23.80;63.32
62152;BME280;48139;47.474;19.034;2022-08-16T05:47:59;99567.50;;;23.77;62.54
62152;BME280;48139;47.474;19.034;2022-08-16T05:51:09;99568.31;;;23.86;63.01
62152;BME280;48139;47.474;19.034;2022-08-16T05:54:14;99552.25;;;23.86;61.47
62152;BME280;48139;47.474;19.034;2022-08-16T05:57:26;99558.28;;;24.10;61.79
62152;BME280;48139;47.474;19.034;2022-08-16T06:00:37;99553.59;;;24.35;62.21
62152;BME280;48139;47.474;19.034;2022-08-16T06:03:40;99550.41;;;24.55;60.78
62152;BME280;48139;47.474;19.034;2022-08-16T06:06:44;99567.81;;;24.73;60.75
62152;BME280;48139;47.474;19.034;2022-08-16T06:09:59;99570.47;;;25.11;60.40
62152;BME280;48139;47.474;19.034;2022-08-16T06:13:03;99563.25;;;25.26;58.65
62152;BME280;48139;47.474;19.034;2022-08-16T06:16:06;99570.28;;;25.42;58.25
62152;BME280;48139;47.474;19.034;2022-08-16T06:19:11;99562.94;;;25.50;56.12
62152;BME280;48139;47.474;19.034;2022-08-16T06:22:16;99571.19;;;25.63;55.18
62152;BME280;48139;47.474;19.034;2022-08-16T06:25:39;99559.53;;;25.71;53.16
62152;BME280;48139;47.474;19.034;2022-08-16T06:28:42;99569.31;;;26.00;53.32
62152;BME280;48139;47.474;19.034;2022-08-16T06:31:46;99567.69;;;26.20;54.24
62152;BME280;48139;47.474;19.034;2022-08-16T06:34:52;99570.78;;;26.38;53.85
62152;BME280;48139;47.474;19.034;2022-08-16T06:37:59;99559.19;;;26.59;50.51
62152;BME280;48139;47.474;19.034;2022-08-16T06:41:07;99569.09;;;26.86;49.36
62152;BME280;48139;47.474;19.034;2022-08-16T06:44:15;99563.59;;;26.95;49.81
62152;BME280;48139;47.474;19.034;2022-08-16T06:47:24;99565.31;;;27.02;49.58
62152;BME280;48139;47.474;19.034;2022-08-16T06:50:47;99564.66;;;27.00;49.87
62152;BME280;48139;47.474;19.034;2022-08-16T06:53:51;99567.91;;;27.17;49.34
62152;BME280;48139;47.474;19.034;2022-08-16T06:56:54;99561.34;;;27.33;48.92
62152;BME280;48139;47.474;19.034;2022-08-16T06:59:57;99560.38;;;27.47;48.43
62152;BME280;48139;47.474;19.034;2022-08-16T07:03:07;99560.44;;;27.53;47.75
62152;BME280;48139;47.474;19.034;2022-08-16T07:06:29;99561.34;;;27.67;47.38
62152;BME280;48139;47.474;19.034;2022-08-16T07:09:32;99569.81;;;27.71;47.05
62152;BME280;48139;47.474;19.034;2022-08-16T07:12:36;99568.41;;;27.81;46.41
62152;BME280;48139;47.474;19.034;2022-08-16T07:15:59;99567.03;;;27.98;46.23
62152;BME280;48139;47.474;19.034;2022-08-16T07:19:03;99572.41;;;27.98;44.74
62152;BME280;48139;47.474;19.034;2022-08-16T07:22:06;99579.22;;;27.94;45.26
62152;BME280;48139;47.474;19.034;2022-08-16T07:25:30;99580.91;;;28.02;46.45
62152;BME280;48139;47.474;19.034;2022-08-16T07:28:34;99574.97;;;28.33;45.70
62152;BME280;48139;47.474;19.034;2022-08-16T07:31:38;99569.59;;;28.39;44.83
62152;BME280;48139;47.474;19.034;2022-08-16T07:34:41;99576.44;;;28.42;45.47
62152;BME280;48139;47.474;19.034;2022-08-16T07:37:51;99583.69;;;28.41;44.96
62152;BME280;48139;47.474;19.034;2022-08-16T07:40:57;99590.31;;;28.39;45.18
62152;BME280;48139;47.474;19.034;2022-08-16T07:44:03;99604.22;;;28.62;45.22
62152;BME280;48139;47.474;19.034;2022-08-16T07:47:18;99601.31;;;28.57;43.96
62152;BME280;48139;47.474;19.034;2022-08-16T07:50:33;99608.50;;;28.24;44.22
62152;BME280;48139;47.474;19.034;2022-08-16T07:53:55;99607.63;;;28.03;44.32
62152;BME280;48139;47.474;19.034;2022-08-16T07:57:12;99603.16;;;28.17;43.14
62152;BME280;48139;47.474;19.034;2022-08-16T08:00:23;99588.22;;;28.28;44.11
62152;BME280;48139;47.474;19.034;2022-08-16T08:03:28;99596.34;;;28.41;43.78
62152;BME280;48139;47.474;19.034;2022-08-16T08:06:41;99596.91;;;28.30;44.83
62152;BME280;48139;47.474;19.034;2022-08-16T08:09:44;99591.78;;;28.48;45.27
62152;BME280;48139;47.474;19.034;2022-08-16T08:12:47;99604.22;;;28.69;46.02
62152;BME280;48139;47.474;19.034;2022-08-16T08:15:51;99603.41;;;28.88;43.46
62152;BME280;48139;47.474;19.034;2022-08-16T08:18:54;99608.41;;;28.98;41.90
62152;BME280;48139;47.474;19.034;2022-08-16T08:22:04;99604.44;;;29.07;40.99
62152;BME280;48139;47.474;19.034;2022-08-16T08:25:08;99610.44;;;29.28;41.94
62152;BME280;48139;47.474;19.034;2022-08-16T08:28:16;99606.41;;;29.57;41.04
62152;BME280;48139;47.474;19.034;2022-08-16T08:31:19;99600.22;;;30.01;41.40
62152;BME280;48139;47.474;19.034;2022-08-16T08:34:22;99608.00;;;30.23;38.84
62152;BME280;48139;47.474;19.034;2022-08-16T08:37:25;99611.25;;;30.31;36.43
62152;BME280;48139;47.474;19.034;2022-08-16T08:40:55;99612.47;;;30.42;37.98
62152;BME280;48139;47.474;19.034;2022-08-16T08:43:58;99614.63;;;30.27;38.94
62152;BME280;48139;47.474;19.034;2022-08-16T08:47:04;99614.25;;;30.23;37.76
62152;BME280;48139;47.474;19.034;2022-08-16T08:50:15;99617.00;;;30.48;38.23
62152;BME280;48139;47.474;19.034;2022-08-16T08:53:34;99615.03;;;30.62;36.26
62152;BME280;48139;47.474;19.034;2022-08-16T08:56:37;99623.25;;;30.73;37.60
62152;BME280;48139;47.474;19.034;2022-08-16T08:59:51;99614.19;;;30.86;37.43
62152;BME280;48139;47.474;19.034;2022-08-16T09:02:55;99601.28;;;30.88;37.67
62152;BME280;48139;47.474;19.034;2022-08-16T09:06:00;99590.88;;;31.16;36.70
62152;BME280;48139;47.474;19.034;2022-08-16T09:09:05;99597.69;;;31.37;37.73
62152;BME280;48139;47.474;19.034;2022-08-16T09:12:10;99597.75;;;31.49;35.79
62152;BME280;48139;47.474;19.034;2022-08-16T09:15:36;99604.34;;;31.59;36.17
62152;BME280;48139;47.474;19.034;2022-08-16T09:18:40;99602.06;;;31.75;35.46
62152;BME280;48139;47.474;19.034;2022-08-16T09:21:43;99598.19;;;32.00;34.42
62152;BME280;48139;47.474;19.034;2022-08-16T09:24:57;99589.00;;;32.01;33.91
62152;BME280;48139;47.474;19.034;2022-08-16T09:28:17;99586.06;;;32.33;33.99
62152;BME280;48139;47.474;19.034;2022-08-16T09:31:42;99577.75;;;32.58;32.94
62152;BME280;48139;47.474;19.034;2022-08-16T09:34:46;99567.72;;;32.58;33.34
62152;BME280;48139;47.474;19.034;2022-08-16T09:37:48;99571.78;;;32.67;32.19
62152;BME280;48139;47.474;19.034;2022-08-16T09:42:33;99567.41;;;33.25;30.88
62152;BME280;48139;47.474;19.034;2022-08-16T09:45:56;99567.41;;;33.25;30.88
62152;BME280;48139;47.474;19.034;2022-08-16T09:48:58;99568.72;;;32.87;30.53
62152;BME280;48139;47.474;19.034;2022-08-16T09:52:06;99570.72;;;33.15;31.96
62152;BME280;48139;47.474;19.034;2022-08-16T09:55:11;99573.19;;;33.40;33.17
62152;BME280;48139;47.474;19.034;2022-08-16T09:58:14;99576.50;;;33.42;31.21
62152;BME280;48139;47.474;19.034;2022-08-16T10:01:37;99572.22;;;33.46;32.25
62152;BME280;48139;47.474;19.034;2022-08-16T10:04:48;99566.00;;;33.10;29.29
62152;BME280;48139;47.474;19.034;2022-08-16T10:07:56;99563.03;;;33.47;28.78
62152;BME280;48139;47.474;19.034;2022-08-16T10:10:58;99560.16;;;33.93;28.72
62152;BME280;48139;47.474;19.034;2022-08-16T10:14:26;99558.53;;;34.21;27.70
62152;BME280;48139;47.474;19.034;2022-08-16T10:17:34;99557.63;;;34.32;27.54
62152;BME280;48139;47.474;19.034;2022-08-16T10:20:44;99555.81;;;34.37;27.53
62152;BME280;48139;47.474;19.034;2022-08-16T10:23:49;99562.97;;;34.44;28.00
62152;BME280;48139;47.474;19.034;2022-08-16T10:26:56;99555.56;;;34.39;27.57
62152;BME280;48139;47.474;19.034;2022-08-16T10:30:22;99554.91;;;34.82;26.12
62152;BME280;48139;47.474;19.034;2022-08-16T10:33:31;99552.25;;;35.04;30.95
62152;BME280;48139;47.474;19.034;2022-08-16T10:36:35;99552.81;;;35.06;25.09
62152;BME280;48139;47.474;19.034;2022-08-16T10:39:41;99559.47;;;34.76;26.16
62152;BME280;48139;47.474;19.034;2022-08-16T10:42:44;99554.69;;;34.84;26.02
62152;BME280;48139;47.474;19.034;2022-08-16T10:45:47;99559.41;;;34.71;26.04
62152;BME280;48139;47.474;19.034;2022-08-16T10:49:02;99554.84;;;34.77;25.32
62152;BME280;48139;47.474;19.034;2022-08-16T10:52:07;99558.22;;;34.84;24.46
62152;BME280;48139;47.474;19.034;2022-08-16T10:55:20;99552.59;;;34.57;24.28
62152;BME280;48139;47.474;19.034;2022-08-16T10:58:43;99546.69;;;34.60;24.37
62152;BME280;48139;47.474;19.034;2022-08-16T11:01:47;99538.44;;;34.72;24.34
62152;BME280;48139;47.474;19.034;2022-08-16T11:05:12;99535.59;;;35.00;25.11
62152;BME280;48139;47.474;19.034;2022-08-16T11:08:18;99527.31;;;35.12;24.05
62152;BME280;48139;47.474;19.034;2022-08-16T11:11:37;99523.31;;;34.98;25.05
62152;BME280;48139;47.474;19.034;2022-08-16T11:15:00;99534.50;;;35.01;24.67
62152;BME280;48139;47.474;19.034;2022-08-16T11:18:19;99531.28;;;35.21;24.29
62152;BME280;48139;47.474;19.034;2022-08-16T11:21:43;99533.31;;;35.14;24.51
62152;BME280;48139;47.474;19.034;2022-08-16T11:25:06;99534.16;;;34.76;25.91
62152;BME280;48139;47.474;19.034;2022-08-16T11:28:29;99538.25;;;34.45;26.79
62152;BME280;48139;47.474;19.034;2022-08-16T11:31:52;99549.50;;;34.20;28.25
62152;BME280;48139;47.474;19.034;2022-08-16T11:34:56;99550.91;;;33.26;28.97
62152;BME280;48139;47.474;19.034;2022-08-16T11:38:19;99574.19;;;32.34;31.50
62152;BME280;48139;47.474;19.034;2022-08-16T11:41:43;99583.25;;;31.43;34.90
62152;BME280;48139;47.474;19.034;2022-08-16T11:44:52;99596.56;;;30.59;35.54
62152;BME280;48139;47.474;19.034;2022-08-16T11:47:58;99585.38;;;30.17;34.98
62152;BME280;48139;47.474;19.034;2022-08-16T11:51:03;99584.84;;;30.02;34.42
62152;BME280;48139;47.474;19.034;2022-08-16T11:54:06;99576.88;;;30.14;33.43
62152;BME280;48139;47.474;19.034;2022-08-16T11:57:24;99590.72;;;30.24;34.45
62152;BME280;48139;47.474;19.034;2022-08-16T12:00:31;99590.91;;;29.91;36.48
62152;BME280;48139;47.474;19.034;2022-08-16T12:03:52;99577.34;;;29.59;38.86
62152;BME280;48139;47.474;19.034;2022-08-16T12:06:54;99571.88;;;28.95;43.46
62152;BME280;48139;47.474;19.034;2022-08-16T12:09:58;99566.06;;;28.72;43.60
62152;BME280;48139;47.474;19.034;2022-08-16T12:13:02;99565.03;;;28.53;44.58
62152;BME280;48139;47.474;19.034;2022-08-16T12:16:05;99555.50;;;28.51;41.82
62152;BME280;48139;47.474;19.034;2022-08-16T12:19:11;99557.00;;;28.79;41.44
62152;BME280;48139;47.474;19.034;2022-08-16T12:22:15;99561.44;;;29.18;42.46
62152;BME280;48139;47.474;19.034;2022-08-16T12:25:23;99554.06;;;29.65;43.43
62152;BME280;48139;47.474;19.034;2022-08-16T12:28:27;99553.56;;;30.19;40.90
62152;BME280;48139;47.474;19.034;2022-08-16T12:31:50;99559.81;;;30.51;39.75
62152;BME280;48139;47.474;19.034;2022-08-16T12:35:17;99558.59;;;31.15;35.83
62152;BME280;48139;47.474;19.034;2022-08-16T12:38:21;99553.13;;;31.88;33.34
62152;BME280;48139;47.474;19.034;2022-08-16T12:41:45;99547.91;;;32.34;33.61
62152;BME280;48139;47.474;19.034;2022-08-16T12:44:48;99542.31;;;32.82;31.43
62152;BME280;48139;47.474;19.034;2022-08-16T12:47:52;99544.66;;;33.02;28.31
62152;BME280;48139;47.474;19.034;2022-08-16T12:51:38;99555.41;;;32.86;28.64
62152;BME280;48139;47.474;19.034;2022-08-16T12:55:02;99549.31;;;32.49;27.52
62152;BME280;48139;47.474;19.034;2022-08-16T12:58:05;99553.16;;;32.18;28.48
62152;BME280;48139;47.474;19.034;2022-08-16T13:01:30;99551.16;;;31.95;29.66
62152;BME280;48139;47.474;19.034;2022-08-16T13:04:33;99538.63;;;31.82;29.22
62152;BME280;48139;47.474;19.034;2022-08-16T13:07:37;99541.44;;;31.76;30.76
62152;BME280;48139;47.474;19.034;2022-08-16T13:10:55;99542.66;;;31.61;31.74
62152;BME280;48139;47.474;19.034;2022-08-16T13:13:58;99530.00;;;31.55;32.94
62152;BME280;48139;47.474;19.034;2022-08-16T13:17:04;99517.16;;;31.51;33.39
62152;BME280;48139;47.474;19.034;2022-08-16T13:20:13;99518.56;;;32.01;33.01
62152;BME280;48139;47.474;19.034;2022-08-16T13:23:17;99512.41;;;32.36;31.81
62152;BME280;48139;47.474;19.034;2022-08-16T13:26:21;99518.09;;;32.93;30.36
62152;BME280;48139;47.474;19.034;2022-08-16T13:29:24;99511.78;;;33.39;29.71
62152;BME280;48139;47.474;19.034;2022-08-16T13:32:41;99508.28;;;33.67;31.86
62152;BME280;48139;47.474;19.034;2022-08-16T13:35:46;99503.91;;;33.94;30.01
62152;BME280;48139;47.474;19.034;2022-08-16T13:39:01;99507.38;;;34.06;28.37
62152;BME280;48139;47.474;19.034;2022-08-16T13:42:10;99513.03;;;34.33;28.03
62152;BME280;48139;47.474;19.034;2022-08-16T13:45:14;99520.13;;;34.51;27.53
62152;BME280;48139;47.474;19.034;2022-08-16T13:48:17;99516.66;;;34.22;27.79
62152;BME280;48139;47.474;19.034;2022-08-16T13:51:26;99514.84;;;34.27;28.03
62152;BME280;48139;47.474;19.034;2022-08-16T13:54:31;99510.91;;;34.52;27.59
62152;BME280;48139;47.474;19.034;2022-08-16T13:57:34;99507.44;;;34.73;27.35
62152;BME280;48139;47.474;19.034;2022-08-16T14:00:59;99500.59;;;34.70;27.48
62152;BME280;48139;47.474;19.034;2022-08-16T14:04:03;99498.41;;;34.89;27.79
62152;BME280;48139;47.474;19.034;2022-08-16T14:07:09;99494.69;;;34.95;27.16
62152;BME280;48139;47.474;19.034;2022-08-16T14:10:13;99493.16;;;34.83;27.68
62152;BME280;48139;47.474;19.034;2022-08-16T14:13:16;99491.66;;;35.13;26.94
62152;BME280;48139;47.474;19.034;2022-08-16T14:16:23;99490.63;;;35.19;27.22
62152;BME280;48139;47.474;19.034;2022-08-16T14:19:35;99484.94;;;34.99;26.92
62152;BME280;48139;47.474;19.034;2022-08-16T14:22:39;99482.75;;;34.63;27.38
62152;BME280;48139;47.474;19.034;2022-08-16T14:25:44;99480.91;;;34.47;26.79
62152;BME280;48139;47.474;19.034;2022-08-16T14:28:55;99475.03;;;34.38;26.94
62152;BME280;48139;47.474;19.034;2022-08-16T14:32:05;99473.97;;;34.39;26.39
62152;BME280;48139;47.474;19.034;2022-08-16T14:35:12;99465.38;;;34.64;26.59
62152;BME280;48139;47.474;19.034;2022-08-16T14:38:15;99473.59;;;34.86;25.40
62152;BME280;48139;47.474;19.034;2022-08-16T14:41:20;99476.50;;;34.79;25.58
62152;BME280;48139;47.474;19.034;2022-08-16T14:44:24;99485.31;;;34.69;25.58
62152;BME280;48139;47.474;19.034;2022-08-16T14:47:28;99491.19;;;34.45;25.50
62152;BME280;48139;47.474;19.034;2022-08-16T14:50:40;99485.16;;;34.42;25.49
62152;BME280;48139;47.474;19.034;2022-08-16T14:53:43;99488.84;;;34.87;25.26
62152;BME280;48139;47.474;19.034;2022-08-16T14:56:50;99508.00;;;34.75;26.09
62152;BME280;48139;47.474;19.034;2022-08-16T14:59:56;99527.25;;;34.07;28.05
62152;BME280;48139;47.474;19.034;2022-08-16T15:03:08;99533.12;;;33.87;28.95
62152;BME280;48139;47.474;19.034;2022-08-16T15:06:12;99543.47;;;33.61;30.96
62152;BME280;48139;47.474;19.034;2022-08-16T15:09:17;99545.00;;;32.82;31.72
62152;BME280;48139;47.474;19.034;2022-08-16T15:12:22;99538.41;;;31.84;31.56
